sensor_id;sensor_type;location;lat;lon;timestamp;temperature;humidity
27544;DHT22;17996;51.056;3.656;2022-07-23T00:00:50;17.90;99.90
27544;DHT22;17996;51.056;3.656;2022-07-23T00:03:16;17.90;99.90
27544;DHT22;17996;51.056;3.656;2022-07-23T00:05:41;17.90;99.90
27544;DHT22;17996;51.056;3.656;2022-07-23T00:08:08;17.80;99.90
27544;DHT22;17996;51.056;3.656;2022-07-23T00:10:34;17.90;99.90
27544;DHT22;17996;51.056;3.656;2022-07-23T00:12:59;17.90;99.90
27544;DHT22;17996;51.056;3.656;2022-07-23T00:15:25;17.80;99.90
27544;DHT22;17996;51.056;3.656;2022-07-23T00:17:51;17.80;99.90
27544;DHT22;17996;51.056;3.656;2022-07-23T00:20:16;17.80;99.90
27544;DHT22;17996;51.056;3.656;2022-07-23T00:22:50;17.70;99.90
27544;DHT22;17996;51.056;3.656;2022-07-23T00:25:16;17.70;99.90
27544;DHT22;17996;51.056;3.656;2022-07-23T00:27:42;17.70;99.90
27544;DHT22;17996;51.056;3.656;2022-07-23T00:30:08;17.70;99.90
27544;DHT22;17996;51.056;3.656;2022-07-23T00:32:55;17.70;99.90
27544;DHT22;17996;51.056;3.656;2022-07-23T00:35:25;17.70;99.90
27544;DHT22;17996;51.056;3.656;2022-07-23T00:37:51;17.60;99.90
27544;DHT22;17996;51.056;3.656;2022-07-23T00:40:17;17.60;99.90
27544;DHT22;17996;51.056;3.656;2022-07-23T00:42:43;17.60;99.90
27544;DHT22;17996;51.056;3.656;2022-07-23T00:45:09;17.60;99.90
27544;DHT22;17996;51.056;3.656;2022-07-23T00:47:34;17.50;99.90
27544;DHT22;17996;51.056;3.656;2022-07-23T00:50:00;17.50;99.90
27544;DHT22;17996;51.056;3.656;2022-07-23T00:52:26;17.50;99.90
27544;DHT22;17996;51.056;3.656;2022-07-23T00:54:52;17.50;99.90
27544;DHT22;17996;51.056;3.656;2022-07-23T00:57:18;17.50;99.90
27544;DHT22;17996;51.056;3.656;2022-07-23T00:59:44;17.50;99.90
27544;DHT22;17996;51.056;3.656;2022-07-23T01:02:10;17.50;99.90
27544;DHT22;17996;51.056;3.656;2022-07-23T01:04:36;17.50;99.90
27544;DHT22;17996;51.056;3.656;2022-07-23T01:07:02;17.40;99.90
27544;DHT22;17996;51.056;3.656;2022-07-23T01:09:27;17.40;99.90
27544;DHT22;17996;51.056;3.656;2022-07-23T01:11:56;17.40;99.90
27544;DHT22;17996;51.056;3.656;2022-07-23T01:14:22;17.30;99.90
27544;DHT22;17996;51.056;3.656;2022-07-23T01:16:49;17.30;99.90
27544;DHT22;17996;51.056;3.656;2022-07-23T01:19:16;17.20;99.90
27544;DHT22;17996;51.056;3.656;2022-07-23T01:21:47;17.20;99.90
27544;DHT22;17996;51.056;3.656;2022-07-23T01:24:15;17.10;99.90
27544;DHT22;17996;51.056;3.656;2022-07-23T01:26:43;17.20;99.90
27544;DHT22;17996;51.056;3.656;2022-07-23T01:29:09;17.10;99.90
27544;DHT22;17996;51.056;3.656;2022-07-23T01:31:35;17.10;99.90
27544;DHT22;17996;51.056;3.656;2022-07-23T01:34:01;17.10;99.90
27544;DHT22;17996;51.056;3.656;2022-07-23T01:36:26;17.10;99.90
27544;DHT22;17996;51.056;3.656;2022-07-23T01:38:53;17.10;99.90
27544;DHT22;17996;51.056;3.656;2022-07-23T01:41:19;17.10;99.90
27544;DHT22;17996;51.056;3.656;2022-07-23T01:43:45;17.00;99.90
27544;DHT22;17996;51.056;3.656;2022-07-23T01:46:11;17.00;99.90
27544;DHT22;17996;51.056;3.656;2022-07-23T01:48:37;17.00;99.90
27544;DHT22;17996;51.056;3.656;2022-07-23T01:51:03;17.00;99.90
27544;DHT22;17996;51.056;3.656;2022-07-23T01:53:28;17.00;99.90
27544;DHT22;17996;51.056;3.656;2022-07-23T01:55:57;17.00;99.90
27544;DHT22;17996;51.056;3.656;2022-07-23T01:58:24;17.00;99.90
27544;DHT22;17996;51.056;3.656;2022-07-23T02:00:49;16.90;99.90
27544;DHT22;17996;51.056;3.656;2022-07-23T02:03:15;16.90;99.90
27544;DHT22;17996;51.056;3.656;2022-07-23T02:05:40;16.90;99.90
27544;DHT22;17996;51.056;3.656;2022-07-23T02:08:06;16.90;99.90
27544;DHT22;17996;51.056;3.656;2022-07-23T02:10:32;16.90;99.90
27544;DHT22;17996;51.056;3.656;2022-07-23T02:12:58;16.80;99.90
27544;DHT22;17996;51.056;3.656;2022-07-23T02:15:23;16.80;99.90
27544;DHT22;17996;51.056;3.656;2022-07-23T02:17:49;16.80;99.90
27544;DHT22;17996;51.056;3.656;2022-07-23T02:20:15;16.80;99.90
27544;DHT22;17996;51.056;3.656;2022-07-23T02:22:40;16.80;99.90
27544;DHT22;17996;51.056;3.656;2022-07-23T02:25:07;16.80;99.90
27544;DHT22;17996;51.056;3.656;2022-07-23T02:27:33;16.80;99.90
27544;DHT22;17996;51.056;3.656;2022-07-23T02:29:59;16.80;99.90
27544;DHT22;17996;51.056;3.656;2022-07-23T02:32:25;16.70;99.90
27544;DHT22;17996;51.056;3.656;2022-07-23T02:34:51;16.70;99.90
27544;DHT22;17996;51.056;3.656;2022-07-23T02:37:17;16.70;99.90
27544;DHT22;17996;51.056;3.656;2022-07-23T02:39:43;16.70;99.90
27544;DHT22;17996;51.056;3.656;2022-07-23T02:42:09;16.70;99.90
27544;DHT22;17996;51.056;3.656;2022-07-23T02:44:34;16.70;99.90
27544;DHT22;17996;51.056;3.656;2022-07-23T02:47:00;16.70;99.90
27544;DHT22;17996;51.056;3.656;2022-07-23T02:49:26;16.70;99.90
27544;DHT22;17996;51.056;3.656;2022-07-23T02:51:52;16.60;99.90
27544;DHT22;17996;51.056;3.656;2022-07-23T02:54:18;16.60;99.90
27544;DHT22;17996;51.056;3.656;2022-07-23T02:56:44;16.70;99.90
27544;DHT22;17996;51.056;3.656;2022-07-23T02:59:10;16.50;99.90
27544;DHT22;17996;51.056;3.656;2022-07-23T03:01:36;16.50;99.90
27544;DHT22;17996;51.056;3.656;2022-07-23T03:04:02;16.50;99.90
27544;DHT22;17996;51.056;3.656;2022-07-23T03:06:28;16.50;99.90
27544;DHT22;17996;51.056;3.656;2022-07-23T03:08:53;16.50;99.90
27544;DHT22;17996;51.056;3.656;2022-07-23T03:11:19;16.40;99.90
27544;DHT22;17996;51.056;3.656;2022-07-23T03:13:45;16.40;99.90
27544;DHT22;17996;51.056;3.656;2022-07-23T03:16:11;16.40;99.90
27544;DHT22;17996;51.056;3.656;2022-07-23T03:18:36;16.40;99.90
27544;DHT22;17996;51.056;3.656;2022-07-23T03:21:02;16.30;99.90
27544;DHT22;17996;51.056;3.656;2022-07-23T03:23:28;16.30;99.90
27544;DHT22;17996;51.056;3.656;2022-07-23T03:25:53;16.30;99.90
27544;DHT22;17996;51.056;3.656;2022-07-23T03:28:19;16.20;99.90
27544;DHT22;17996;51.056;3.656;2022-07-23T03:30:46;16.20;99.90
27544;DHT22;17996;51.056;3.656;2022-07-23T03:33:18;16.20;99.90
27544;DHT22;17996;51.056;3.656;2022-07-23T03:35:46;16.10;99.90
27544;DHT22;17996;51.056;3.656;2022-07-23T03:38:13;16.10;99.90
27544;DHT22;17996;51.056;3.656;2022-07-23T03:40:39;16.00;99.90
27544;DHT22;17996;51.056;3.656;2022-07-23T03:43:04;16.00;99.90
27544;DHT22;17996;51.056;3.656;2022-07-23T03:45:31;16.10;99.90
27544;DHT22;17996;51.056;3.656;2022-07-23T03:47:57;16.10;99.90
27544;DHT22;17996;51.056;3.656;2022-07-23T03:50:23;16.10;99.90
27544;DHT22;17996;51.056;3.656;2022-07-23T03:52:48;16.00;99.90
27544;DHT22;17996;51.056;3.656;2022-07-23T03:55:14;16.10;99.90
27544;DHT22;17996;51.056;3.656;2022-07-23T03:57:40;16.00;99.90
27544;DHT22;17996;51.056;3.656;2022-07-23T04:00:07;16.00;99.90
27544;DHT22;17996;51.056;3.656;2022-07-23T04:02:37;16.00;99.90
27544;DHT22;17996;51.056;3.656;2022-07-23T04:05:04;16.00;99.90
27544;DHT22;17996;51.056;3.656;2022-07-23T04:07:30;16.00;99.90
27544;DHT22;17996;51.056;3.656;2022-07-23T04:09:56;15.90;99.90
27544;DHT22;17996;51.056;3.656;2022-07-23T04:12:22;15.90;99.90
27544;DHT22;17996;51.056;3.656;2022-07-23T04:14:47;16.00;99.90
27544;DHT22;17996;51.056;3.656;2022-07-23T04:17:13;16.00;99.90
27544;DHT22;17996;51.056;3.656;2022-07-23T04:19:39;16.00;99.90
27544;DHT22;17996;51.056;3.656;2022-07-23T04:22:10;16.00;99.90
27544;DHT22;17996;51.056;3.656;2022-07-23T04:24:37;16.10;99.90
27544;DHT22;17996;51.056;3.656;2022-07-23T04:27:03;16.10;99.90
27544;DHT22;17996;51.056;3.656;2022-07-23T04:29:29;16.10;99.90
27544;DHT22;17996;51.056;3.656;2022-07-23T04:31:55;16.10;99.90
27544;DHT22;17996;51.056;3.656;2022-07-23T04:34:21;16.10;99.90
27544;DHT22;17996;51.056;3.656;2022-07-23T04:36:47;16.10;99.90
27544;DHT22;17996;51.056;3.656;2022-07-23T04:39:13;16.10;99.90
27544;DHT22;17996;51.056;3.656;2022-07-23T04:41:39;16.10;99.90
27544;DHT22;17996;51.056;3.656;2022-07-23T04:44:04;16.10;99.90
27544;DHT22;17996;51.056;3.656;2022-07-23T04:46:30;16.20;99.90
27544;DHT22;17996;51.056;3.656;2022-07-23T04:48:56;16.20;99.90
27544;DHT22;17996;51.056;3.656;2022-07-23T04:51:21;16.20;99.90
27544;DHT22;17996;51.056;3.656;2022-07-23T04:53:47;16.20;99.90
27544;DHT22;17996;51.056;3.656;2022-07-23T04:56:13;16.20;99.90
27544;DHT22;17996;51.056;3.656;2022-07-23T04:58:39;16.20;99.90
27544;DHT22;17996;51.056;3.656;2022-07-23T05:01:04;16.30;99.90
27544;DHT22;17996;51.056;3.656;2022-07-23T05:03:30;16.30;99.90
27544;DHT22;17996;51.056;3.656;2022-07-23T05:05:56;16.30;99.90
27544;DHT22;17996;51.056;3.656;2022-07-23T05:08:22;16.30;99.90
27544;DHT22;17996;51.056;3.656;2022-07-23T05:10:47;16.30;99.90
27544;DHT22;17996;51.056;3.656;2022-07-23T05:13:16;16.30;99.90
27544;DHT22;17996;51.056;3.656;2022-07-23T05:15:43;16.30;99.90
27544;DHT22;17996;51.056;3.656;2022-07-23T05:18:10;16.30;99.90
27544;DHT22;17996;51.056;3.656;2022-07-23T05:20:36;16.30;99.90
27544;DHT22;17996;51.056;3.656;2022-07-23T05:23:02;16.40;99.90
27544;DHT22;17996;51.056;3.656;2022-07-23T05:25:27;16.30;99.90
27544;DHT22;17996;51.056;3.656;2022-07-23T05:27:53;16.30;99.90
27544;DHT22;17996;51.056;3.656;2022-07-23T05:30:19;16.30;99.90
27544;DHT22;17996;51.056;3.656;2022-07-23T05:32:45;16.40;99.90
27544;DHT22;17996;51.056;3.656;2022-07-23T05:35:11;16.40;99.90
27544;DHT22;17996;51.056;3.656;2022-07-23T05:37:37;16.50;99.90
27544;DHT22;17996;51.056;3.656;2022-07-23T05:40:04;16.60;99.90
27544;DHT22;17996;51.056;3.656;2022-07-23T05:42:36;16.60;99.90
27544;DHT22;17996;51.056;3.656;2022-07-23T05:45:02;16.70;99.90
27544;DHT22;17996;51.056;3.656;2022-07-23T05:47:28;16.70;99.90
27544;DHT22;17996;51.056;3.656;2022-07-23T05:49:54;16.70;99.90
27544;DHT22;17996;51.056;3.656;2022-07-23T05:52:19;16.70;99.90
27544;DHT22;17996;51.056;3.656;2022-07-23T05:54:45;16.80;99.90
27544;DHT22;17996;51.056;3.656;2022-07-23T05:57:11;16.80;99.90
27544;DHT22;17996;51.056;3.656;2022-07-23T05:59:36;16.90;99.90
27544;DHT22;17996;51.056;3.656;2022-07-23T06:02:02;16.90;99.90
27544;DHT22;17996;51.056;3.656;2022-07-23T06:04:28;16.90;99.90
27544;DHT22;17996;51.056;3.656;2022-07-23T06:06:54;17.00;99.90
27544;DHT22;17996;51.056;3.656;2022-07-23T06:09:21;17.00;99.90
27544;DHT22;17996;51.056;3.656;2022-07-23T06:11:46;17.10;99.90
27544;DHT22;17996;51.056;3.656;2022-07-23T06:14:12;17.20;99.90
27544;DHT22;17996;51.056;3.656;2022-07-23T06:16:38;17.30;99.90
27544;DHT22;17996;51.056;3.656;2022-07-23T06:19:03;17.40;99.90
27544;DHT22;17996;51.056;3.656;2022-07-23T06:21:29;17.50;99.90
27544;DHT22;17996;51.056;3.656;2022-07-23T06:23:55;17.60;99.90
27544;DHT22;17996;51.056;3.656;2022-07-23T06:26:20;17.50;99.90
27544;DHT22;17996;51.056;3.656;2022-07-23T06:28:46;17.50;99.90
27544;DHT22;17996;51.056;3.656;2022-07-23T06:31:11;17.60;99.90
27544;DHT22;17996;51.056;3.656;2022-07-23T06:33:37;17.70;99.90
27544;DHT22;17996;51.056;3.656;2022-07-23T06:36:03;17.70;99.90
27544;DHT22;17996;51.056;3.656;2022-07-23T06:38:29;17.80;99.90
27544;DHT22;17996;51.056;3.656;2022-07-23T06:40:54;17.80;99.90
27544;DHT22;17996;51.056;3.656;2022-07-23T06:43:20;17.90;99.90
27544;DHT22;17996;51.056;3.656;2022-07-23T06:45:45;18.00;99.90
27544;DHT22;17996;51.056;3.656;2022-07-23T06:48:11;18.00;99.90
27544;DHT22;17996;51.056;3.656;2022-07-23T06:50:37;18.10;99.90
27544;DHT22;17996;51.056;3.656;2022-07-23T06:53:02;18.10;99.90
27544;DHT22;17996;51.056;3.656;2022-07-23T06:55:28;18.10;99.90
27544;DHT22;17996;51.056;3.656;2022-07-23T06:57:54;18.20;99.90
27544;DHT22;17996;51.056;3.656;2022-07-23T07:00:19;18.20;99.90
27544;DHT22;17996;51.056;3.656;2022-07-23T07:02:45;18.30;99.90
27544;DHT22;17996;51.056;3.656;2022-07-23T07:05:11;18.30;99.90
27544;DHT22;17996;51.056;3.656;2022-07-23T07:07:36;18.40;99.90
27544;DHT22;17996;51.056;3.656;2022-07-23T07:10:06;18.40;99.90
27544;DHT22;17996;51.056;3.656;2022-07-23T07:12:31;18.40;99.90
27544;DHT22;17996;51.056;3.656;2022-07-23T07:14:57;18.50;99.90
27544;DHT22;17996;51.056;3.656;2022-07-23T07:17:23;18.60;99.90
27544;DHT22;17996;51.056;3.656;2022-07-23T07:19:49;18.60;99.90
27544;DHT22;17996;51.056;3.656;2022-07-23T07:22:15;18.70;99.90
27544;DHT22;17996;51.056;3.656;2022-07-23T07:24:40;18.80;99.90
27544;DHT22;17996;51.056;3.656;2022-07-23T07:27:06;18.90;99.90
27544;DHT22;17996;51.056;3.656;2022-07-23T07:29:31;19.00;99.90
27544;DHT22;17996;51.056;3.656;2022-07-23T07:31:57;19.00;99.90
27544;DHT22;17996;51.056;3.656;2022-07-23T07:34:23;19.10;99.90
27544;DHT22;17996;51.056;3.656;2022-07-23T07:36:49;19.20;99.90
27544;DHT22;17996;51.056;3.656;2022-07-23T07:39:15;19.30;99.90
27544;DHT22;17996;51.056;3.656;2022-07-23T07:41:41;19.30;99.90
27544;DHT22;17996;51.056;3.656;2022-07-23T07:44:06;19.40;99.90
27544;DHT22;17996;51.056;3.656;2022-07-23T07:46:32;19.50;99.90
27544;DHT22;17996;51.056;3.656;2022-07-23T07:48:58;19.50;99.90
27544;DHT22;17996;51.056;3.656;2022-07-23T07:51:23;19.60;99.90
27544;DHT22;17996;51.056;3.656;2022-07-23T07:53:49;19.70;99.90
27544;DHT22;17996;51.056;3.656;2022-07-23T07:56:15;19.90;99.90
27544;DHT22;17996;51.056;3.656;2022-07-23T07:58:40;20.10;99.90
27544;DHT22;17996;51.056;3.656;2022-07-23T08:01:06;20.40;99.90
27544;DHT22;17996;51.056;3.656;2022-07-23T08:03:32;20.60;99.90
27544;DHT22;17996;51.056;3.656;2022-07-23T08:05:57;20.80;99.90
27544;DHT22;17996;51.056;3.656;2022-07-23T08:08:24;21.00;99.90
27544;DHT22;17996;51.056;3.656;2022-07-23T08:10:50;21.20;99.90
27544;DHT22;17996;51.056;3.656;2022-07-23T08:13:16;21.40;99.90
27544;DHT22;17996;51.056;3.656;2022-07-23T08:15:43;21.60;99.90
27544;DHT22;17996;51.056;3.656;2022-07-23T08:18:09;21.80;99.90
27544;DHT22;17996;51.056;3.656;2022-07-23T08:20:35;21.90;99.90
27544;DHT22;17996;51.056;3.656;2022-07-23T08:23:06;22.00;99.90
27544;DHT22;17996;51.056;3.656;2022-07-23T08:25:35;22.10;99.90
27544;DHT22;17996;51.056;3.656;2022-07-23T08:28:02;22.20;99.90
27544;DHT22;17996;51.056;3.656;2022-07-23T08:30:28;22.30;99.90
27544;DHT22;17996;51.056;3.656;2022-07-23T08:33:03;22.40;99.90
27544;DHT22;17996;51.056;3.656;2022-07-23T08:35:46;22.50;99.90
27544;DHT22;17996;51.056;3.656;2022-07-23T08:38:15;22.60;99.90
27544;DHT22;17996;51.056;3.656;2022-07-23T08:40:43;22.60;99.90
27544;DHT22;17996;51.056;3.656;2022-07-23T08:43:12;22.60;99.90
27544;DHT22;17996;51.056;3.656;2022-07-23T08:45:40;22.50;99.90
27544;DHT22;17996;51.056;3.656;2022-07-23T08:48:13;22.40;99.90
27544;DHT22;17996;51.056;3.656;2022-07-23T08:50:42;22.40;99.90
27544;DHT22;17996;51.056;3.656;2022-07-23T08:53:08;22.40;99.90
27544;DHT22;17996;51.056;3.656;2022-07-23T08:55:34;22.30;99.90
27544;DHT22;17996;51.056;3.656;2022-07-23T08:58:00;22.40;99.90
27544;DHT22;17996;51.056;3.656;2022-07-23T09:00:26;22.20;99.90
27544;DHT22;17996;51.056;3.656;2022-07-23T09:02:52;22.20;99.90
27544;DHT22;17996;51.056;3.656;2022-07-23T09:05:18;22.00;99.90
27544;DHT22;17996;51.056;3.656;2022-07-23T09:08:04;22.00;99.90
27544;DHT22;17996;51.056;3.656;2022-07-23T09:10:29;22.00;99.90
27544;DHT22;17996;51.056;3.656;2022-07-23T09:12:55;21.90;99.90
27544;DHT22;17996;51.056;3.656;2022-07-23T09:15:21;21.90;99.90
27544;DHT22;17996;51.056;3.656;2022-07-23T09:17:46;21.90;99.90
27544;DHT22;17996;51.056;3.656;2022-07-23T09:20:15;22.00;99.90
27544;DHT22;17996;51.056;3.656;2022-07-23T09:22:46;22.10;99.90
27544;DHT22;17996;51.056;3.656;2022-07-23T09:25:17;22.20;99.90
27544;DHT22;17996;51.056;3.656;2022-07-23T09:30:14;22.30;99.90
27544;DHT22;17996;51.056;3.656;2022-07-23T09:32:40;22.40;99.90
27544;DHT22;17996;51.056;3.656;2022-07-23T09:35:06;22.50;99.90
27544;DHT22;17996;51.056;3.656;2022-07-23T09:37:32;22.50;99.90
27544;DHT22;17996;51.056;3.656;2022-07-23T09:40:06;22.50;99.90
27544;DHT22;17996;51.056;3.656;2022-07-23T09:42:32;22.40;99.90
27544;DHT22;17996;51.056;3.656;2022-07-23T09:44:59;22.40;99.90
27544;DHT22;17996;51.056;3.656;2022-07-23T09:47:27;22.40;99.90
27544;DHT22;17996;51.056;3.656;2022-07-23T09:50:03;22.50;99.90
27544;DHT22;17996;51.056;3.656;2022-07-23T09:52:36;22.50;99.90
27544;DHT22;17996;51.056;3.656;2022-07-23T09:55:07;22.60;99.90
27544;DHT22;17996;51.056;3.656;2022-07-23T09:57:33;22.60;99.90
27544;DHT22;17996;51.056;3.656;2022-07-23T10:00:02;22.70;99.90
27544;DHT22;17996;51.056;3.656;2022-07-23T10:02:32;22.80;99.90
27544;DHT22;17996;51.056;3.656;2022-07-23T10:04:58;22.90;99.90
27544;DHT22;17996;51.056;3.656;2022-07-23T10:07:26;23.00;99.90
27544;DHT22;17996;51.056;3.656;2022-07-23T10:09:53;23.10;99.90
27544;DHT22;17996;51.056;3.656;2022-07-23T10:12:19;23.20;99.90
27544;DHT22;17996;51.056;3.656;2022-07-23T10:14:50;23.10;99.90
27544;DHT22;17996;51.056;3.656;2022-07-23T10:17:17;23.10;99.90
27544;DHT22;17996;51.056;3.656;2022-07-23T10:19:44;23.10;99.90
27544;DHT22;17996;51.056;3.656;2022-07-23T10:22:14;23.20;99.90
27544;DHT22;17996;51.056;3.656;2022-07-23T10:24:50;23.30;99.90
27544;DHT22;17996;51.056;3.656;2022-07-23T10:29:58;23.30;99.90
27544;DHT22;17996;51.056;3.656;2022-07-23T10:35:37;23.30;99.90
27544;DHT22;17996;51.056;3.656;2022-07-23T10:38:15;23.30;99.90
27544;DHT22;17996;51.056;3.656;2022-07-23T10:41:04;23.30;99.90
27544;DHT22;17996;51.056;3.656;2022-07-23T10:43:31;23.20;99.90
27544;DHT22;17996;51.056;3.656;2022-07-23T10:46:25;23.10;99.90
27544;DHT22;17996;51.056;3.656;2022-07-23T10:49:24;23.20;99.90
27544;DHT22;17996;51.056;3.656;2022-07-23T10:52:25;23.10;99.90
27544;DHT22;17996;51.056;3.656;2022-07-23T10:54:56;23.20;99.90
27544;DHT22;17996;51.056;3.656;2022-07-23T10:57:27;23.20;99.90
27544;DHT22;17996;51.056;3.656;2022-07-23T11:02:31;23.20;99.90
27544;DHT22;17996;51.056;3.656;2022-07-23T11:05:08;23.20;99.90
27544;DHT22;17996;51.056;3.656;2022-07-23T11:07:36;23.20;99.90
27544;DHT22;17996;51.056;3.656;2022-07-23T11:10:03;23.30;99.90
27544;DHT22;17996;51.056;3.656;2022-07-23T11:15:08;23.30;99.90
27544;DHT22;17996;51.056;3.656;2022-07-23T11:25:11;23.40;99.90
27544;DHT22;17996;51.056;3.656;2022-07-23T11:27:44;23.50;99.90
27544;DHT22;17996;51.056;3.656;2022-07-23T11:35:35;23.70;99.90
27544;DHT22;17996;51.056;3.656;2022-07-23T11:38:09;23.80;99.90
27544;DHT22;17996;51.056;3.656;2022-07-23T11:40:38;23.80;99.90
27544;DHT22;17996;51.056;3.656;2022-07-23T11:43:09;23.80;99.90
27544;DHT22;17996;51.056;3.656;2022-07-23T11:45:42;23.90;99.90
27544;DHT22;17996;51.056;3.656;2022-07-23T11:48:16;24.00;99.90
27544;DHT22;17996;51.056;3.656;2022-07-23T11:50:42;24.00;99.90
27544;DHT22;17996;51.056;3.656;2022-07-23T11:53:08;24.00;99.90
27544;DHT22;17996;51.056;3.656;2022-07-23T11:55:34;24.00;99.90
27544;DHT22;17996;51.056;3.656;2022-07-23T11:57:59;24.00;99.90
27544;DHT22;17996;51.056;3.656;2022-07-23T12:00:28;24.10;99.80
27544;DHT22;17996;51.056;3.656;2022-07-23T12:03:00;24.10;99.90
27544;DHT22;17996;51.056;3.656;2022-07-23T12:05:37;24.10;99.80
27544;DHT22;17996;51.056;3.656;2022-07-23T12:08:05;24.20;99.30
27544;DHT22;17996;51.056;3.656;2022-07-23T12:10:37;24.20;99.90
27544;DHT22;17996;51.056;3.656;2022-07-23T12:13:05;24.20;99.20
27544;DHT22;17996;51.056;3.656;2022-07-23T12:15:38;24.20;97.80
27544;DHT22;17996;51.056;3.656;2022-07-23T12:18:05;24.30;98.30
27544;DHT22;17996;51.056;3.656;2022-07-23T12:20:34;24.20;97.20
27544;DHT22;17996;51.056;3.656;2022-07-23T12:23:04;24.20;97.90
27544;DHT22;17996;51.056;3.656;2022-07-23T12:25:35;24.30;97.50
27544;DHT22;17996;51.056;3.656;2022-07-23T12:28:11;24.40;97.40
27544;DHT22;17996;51.056;3.656;2022-07-23T12:33:07;24.50;97.60
27544;DHT22;17996;51.056;3.656;2022-07-23T12:35:39;24.50;97.10
27544;DHT22;17996;51.056;3.656;2022-07-23T12:38:09;24.60;97.10
27544;DHT22;17996;51.056;3.656;2022-07-23T12:40:44;24.70;97.50
27544;DHT22;17996;51.056;3.656;2022-07-23T12:43:35;24.80;97.10
27544;DHT22;17996;51.056;3.656;2022-07-23T12:46:20;24.90;97.50
27544;DHT22;17996;51.056;3.656;2022-07-23T12:51:25;25.00;96.60
27544;DHT22;17996;51.056;3.656;2022-07-23T12:53:54;25.20;97.00
27544;DHT22;17996;51.056;3.656;2022-07-23T12:56:29;25.20;96.60
27544;DHT22;17996;51.056;3.656;2022-07-23T12:59:06;25.30;96.90
27544;DHT22;17996;51.056;3.656;2022-07-23T13:01:40;25.30;96.50
27544;DHT22;17996;51.056;3.656;2022-07-23T13:04:18;25.40;97.10
27544;DHT22;17996;51.056;3.656;2022-07-23T13:11:47;25.80;97.50
27544;DHT22;17996;51.056;3.656;2022-07-23T13:14:13;25.70;95.70
27544;DHT22;17996;51.056;3.656;2022-07-23T13:16:39;25.70;95.50
27544;DHT22;17996;51.056;3.656;2022-07-23T13:19:06;25.80;96.10
27544;DHT22;17996;51.056;3.656;2022-07-23T13:21:32;26.00;96.10
27544;DHT22;17996;51.056;3.656;2022-07-23T13:23:58;26.00;96.10
27544;DHT22;17996;51.056;3.656;2022-07-23T13:26:24;26.00;95.60
27544;DHT22;17996;51.056;3.656;2022-07-23T13:28:50;26.10;95.40
27544;DHT22;17996;51.056;3.656;2022-07-23T13:31:16;26.10;95.30
27544;DHT22;17996;51.056;3.656;2022-07-23T13:33:43;26.10;94.80
27544;DHT22;17996;51.056;3.656;2022-07-23T13:36:09;26.00;94.20
27544;DHT22;17996;51.056;3.656;2022-07-23T13:38:34;26.10;95.20
27544;DHT22;17996;51.056;3.656;2022-07-23T13:41:00;26.10;95.20
27544;DHT22;17996;51.056;3.656;2022-07-23T13:43:28;26.10;94.80
27544;DHT22;17996;51.056;3.656;2022-07-23T13:45:54;26.20;95.50
27544;DHT22;17996;51.056;3.656;2022-07-23T13:48:20;26.30;96.10
27544;DHT22;17996;51.056;3.656;2022-07-23T13:50:47;26.50;95.60
27544;DHT22;17996;51.056;3.656;2022-07-23T13:53:16;26.60;95.10
27544;DHT22;17996;51.056;3.656;2022-07-23T13:55:43;26.80;96.30
27544;DHT22;17996;51.056;3.656;2022-07-23T13:58:10;27.00;96.30
27544;DHT22;17996;51.056;3.656;2022-07-23T14:00:39;27.20;96.90
27544;DHT22;17996;51.056;3.656;2022-07-23T14:03:04;27.50;96.90
27544;DHT22;17996;51.056;3.656;2022-07-23T14:05:30;27.80;96.20
27544;DHT22;17996;51.056;3.656;2022-07-23T14:07:56;28.00;96.10
27544;DHT22;17996;51.056;3.656;2022-07-23T14:10:22;28.20;95.20
27544;DHT22;17996;51.056;3.656;2022-07-23T14:12:50;28.20;91.60
27544;DHT22;17996;51.056;3.656;2022-07-23T14:15:17;28.40;91.90
27544;DHT22;17996;51.056;3.656;2022-07-23T14:17:44;28.50;92.50
27544;DHT22;17996;51.056;3.656;2022-07-23T14:20:11;28.70;92.10
27544;DHT22;17996;51.056;3.656;2022-07-23T14:22:37;28.80;93.00
27544;DHT22;17996;51.056;3.656;2022-07-23T14:25:05;28.90;90.70
27544;DHT22;17996;51.056;3.656;2022-07-23T14:27:32;29.00;92.30
27544;DHT22;17996;51.056;3.656;2022-07-23T14:29:58;28.90;90.60
27544;DHT22;17996;51.056;3.656;2022-07-23T14:32:24;29.20;91.50
27544;DHT22;17996;51.056;3.656;2022-07-23T14:34:50;29.60;91.60
27544;DHT22;17996;51.056;3.656;2022-07-23T14:37:16;30.10;90.80
27544;DHT22;17996;51.056;3.656;2022-07-23T14:39:42;30.30;87.30
27544;DHT22;17996;51.056;3.656;2022-07-23T14:42:09;31.00;88.90
27544;DHT22;17996;51.056;3.656;2022-07-23T14:44:36;31.70;86.70
27544;DHT22;17996;51.056;3.656;2022-07-23T14:47:02;32.40;83.30
27544;DHT22;17996;51.056;3.656;2022-07-23T14:49:30;33.00;77.50
27544;DHT22;17996;51.056;3.656;2022-07-23T14:51:56;33.40;76.00
27544;DHT22;17996;51.056;3.656;2022-07-23T14:54:22;33.30;74.20
27544;DHT22;17996;51.056;3.656;2022-07-23T14:56:47;32.70;73.30
27544;DHT22;17996;51.056;3.656;2022-07-23T14:59:13;32.10;74.30
27544;DHT22;17996;51.056;3.656;2022-07-23T15:01:39;32.10;79.10
27544;DHT22;17996;51.056;3.656;2022-07-23T15:04:06;32.10;75.50
27544;DHT22;17996;51.056;3.656;2022-07-23T15:06:32;32.10;72.50
27544;DHT22;17996;51.056;3.656;2022-07-23T15:08:58;32.50;72.10
27544;DHT22;17996;51.056;3.656;2022-07-23T15:11:26;33.50;74.50
27544;DHT22;17996;51.056;3.656;2022-07-23T15:13:52;34.50;73.70
27544;DHT22;17996;51.056;3.656;2022-07-23T15:16:18;35.10;69.60
27544;DHT22;17996;51.056;3.656;2022-07-23T15:18:43;35.30;67.60
27544;DHT22;17996;51.056;3.656;2022-07-23T15:21:09;35.60;65.80
27544;DHT22;17996;51.056;3.656;2022-07-23T15:23:35;35.80;64.00
27544;DHT22;17996;51.056;3.656;2022-07-23T15:26:02;35.30;63.00
27544;DHT22;17996;51.056;3.656;2022-07-23T15:28:27;34.90;64.90
27544;DHT22;17996;51.056;3.656;2022-07-23T15:30:53;34.40;63.80
27544;DHT22;17996;51.056;3.656;2022-07-23T15:33:19;33.80;64.70
27544;DHT22;17996;51.056;3.656;2022-07-23T15:35:45;33.40;66.00
27544;DHT22;17996;51.056;3.656;2022-07-23T15:38:11;33.10;65.90
27544;DHT22;17996;51.056;3.656;2022-07-23T15:40:37;33.00;68.30
27544;DHT22;17996;51.056;3.656;2022-07-23T15:43:02;32.90;69.40
27544;DHT22;17996;51.056;3.656;2022-07-23T15:45:30;32.80;67.80
27544;DHT22;17996;51.056;3.656;2022-07-23T15:47:56;33.00;67.90
27544;DHT22;17996;51.056;3.656;2022-07-23T15:50:22;33.00;65.20
27544;DHT22;17996;51.056;3.656;2022-07-23T15:52:47;33.30;65.50
27544;DHT22;17996;51.056;3.656;2022-07-23T15:55:13;33.30;62.80
27544;DHT22;17996;51.056;3.656;2022-07-23T15:57:39;33.50;63.70
27544;DHT22;17996;51.056;3.656;2022-07-23T16:00:06;33.90;65.30
27544;DHT22;17996;51.056;3.656;2022-07-23T16:02:33;34.30;66.40
27544;DHT22;17996;51.056;3.656;2022-07-23T16:04:59;34.60;65.50
27544;DHT22;17996;51.056;3.656;2022-07-23T16:07:25;34.70;65.10